Time;durP1;ratioP1;P1;durP2;ratioP2;P2;SDS_P1;SDS_P2;PMS_P1;PMS_P2;Temp;Humidity;BMP_temperature;BMP_pressure;BME280_temperature;BME280_humidity;BME280_pressure;Samples;Min_cycle;Max_cycle;Signal;HPM_P1;HPM_P2
2022/12/17 13:08:18;;;;;;;39.10;19.30;;;;;;;2.34;83.71;102336.94;4934211;29;20027;-73
2022/12/17 13:10:46;;;;;;;45.42;21.05;;;;;;;2.28;84.33;102337.25;4929514;29;20035;-73
2022/12/17 13:13:38;;;;;;;45.22;20.67;;;;;;;2.22;83.86;102337.53;4905847;29;20032;-73
2022/12/17 13:16:17;;;;;;;;;;;;;;;2.20;83.88;102323.34;4891651;29;20551;-73
2022/12/17 13:18:43;;;;;;;45.63;21.42;;;;;;;2.14;83.86;102334.31;4895259;29;19971;-73
2022/12/17 13:21:14;;;;;;;42.92;22.15;;;;;;;2.22;83.87;102337.53;4894260;29;20036;-73
2022/12/17 13:23:40;;;;;;;41.88;21.15;;;;;;;2.42;83.58;102334.81;4910531;29;20030;-73
2022/12/17 13:26:19;;;;;;;45.83;21.73;;;;;;;2.54;82.86;102332.50;4898626;29;20028;-76
2022/12/17 13:29:27;;;;;;;38.20;20.70;;;;;;;2.23;83.60;102333.91;4915470;29;20027;-73
2022/12/17 13:32:24;;;;;;;42.92;21.42;;;;;;;1.83;85.04;102334.81;4893032;29;20088;-73
2022/12/17 13:34:59;;;;;;;40.33;20.63;;;;;;;1.84;84.89;102337.41;4919595;29;20082;-73
2022/12/17 13:37:57;;;;;;;39.33;18.20;;;;;;;1.92;83.92;102339.75;4908378;29;20020;-74
2022/12/17 13:40:41;;;;;;;35.77;18.37;;;;;;;1.88;83.46;102339.00;4892434;29;20091;-74
2022/12/17 13:43:18;;;;;;;35.87;18.70;;;;;;;1.58;84.11;102334.97;4893173;29;20103;-73
2022/12/17 13:45:44;;;;;;;40.60;18.73;;;;;;;1.66;84.26;102340.84;4892419;29;20096;-73
2022/12/17 13:48:20;;;;;;;40.73;18.50;;;;;;;1.24;84.98;102338.16;4898535;29;20107;-72
2022/12/17 13:51:03;;;;;;;37.87;17.70;;;;;;;1.46;85.74;102340.81;4898243;29;20032;-75
2022/12/17 13:53:36;;;;;;;37.37;19.33;;;;;;;1.22;85.55;102342.69;4898171;29;20028;-74
2022/12/17 13:56:01;;;;;;;55.90;25.10;;;;;;;1.36;86.38;102346.53;4909079;29;20099;-74
2022/12/17 13:58:31;;;;;;;37.07;17.50;;;;;;;1.30;86.10;102345.91;4892389;29;20487;-73
2022/12/17 14:01:08;;;;;;;40.73;20.97;;;;;;;1.27;86.10;102352.25;4892880;29;20032;-75
2022/12/17 14:03:35;;;;;;;39.27;20.23;;;;;;;0.95;87.05;102352.66;4896792;29;20079;-76
2022/12/17 14:06:02;;;;;;;40.20;18.90;;;;;;;1.02;87.74;102363.03;4896480;29;20051;-74
2022/12/17 14:08:31;;;;;;;39.83;20.17;;;;;;;0.97;88.61;102364.13;4900139;29;20036;-74
2022/12/17 14:12:20;;;;;;;53.40;22.10;;;;;;;0.84;89.42;102362.88;4902030;29;20119;-74
2022/12/17 14:13:45;;;;;;;46.80;23.43;;;;;;;0.77;89.92;102373.75;4923321;29;20031;-74
2022/12/17 14:16:18;;;;;;;49.43;22.77;;;;;;;0.59;90.49;102363.81;4923657;29;20051;-75
2022/12/17 14:18:50;;;;;;;54.80;23.50;;;;;;;0.56;91.35;102374.59;4910802;29;20023;-73
2022/12/17 14:21:16;;;;;;;50.70;23.13;;;;;;;0.62;90.25;102369.03;4904082;29;20122;-73
2022/12/17 14:23:43;;;;;;;50.17;21.80;;;;;;;0.45;90.88;102379.44;4941063;28;20374;-73
2022/12/17 14:26:11;;;;;;;41.63;21.43;;;;;;;0.53;90.02;102377.38;4930997;28;20498;-75
2022/12/17 14:28:49;;;;;;;49.27;21.83;;;;;;;0.45;90.49;102392.75;4941914;28;20023;-73
2022/12/17 14:31:21;;;;;;;44.77;22.77;;;;;;;0.42;90.82;102387.56;4936290;28;20051;-73
2022/12/17 14:33:47;;;;;;;46.00;22.03;;;;;;;0.32;90.78;102387.00;4912133;29;20024;-74
2022/12/17 14:36:18;;;;;;;45.77;20.23;;;;;;;0.35;90.20;102389.56;4937298;28;20059;-73
2022/12/17 14:39:19;;;;;;;41.13;19.83;;;;;;;0.40;90.49;102381.41;4940718;29;20038;-74
2022/12/17 14:44:30;;;;;;;46.10;20.80;;;;;;;0.05;90.83;102393.31;4930712;29;20022;-73
2022/12/17 14:47:30;;;;;;;37.57;19.30;;;;;;;-0.05;92.15;102393.63;4934247;29;20039;-73
2022/12/17 14:49:59;;;;;;;51.80;23.37;;;;;;;0.09;91.61;102393.16;4914962;29;20059;-73
2022/12/17 14:52:36;;;;;;;48.07;20.53;;;;;;;-0.07;91.51;102394.59;4920230;29;20134;-73
2022/12/17 14:55:31;;;;;;;51.60;21.40;;;;;;;-0.16;92.65;102389.59;4932593;29;20035;-73
2022/12/17 14:58:10;;;;;;;43.10;19.93;;;;;;;-0.14;92.37;102387.75;4930800;29;20035;-74
2022/12/17 15:00:41;;;;;;;46.67;20.60;;;;;;;-0.15;92.59;102391.34;4925118;29;20027;-74
2022/12/17 15:03:23;;;;;;;50.28;20.52;;;;;;;-0.25;93.14;102395.25;4932351;29;20097;-74
2022/12/17 15:05:52;;;;;;;42.95;20.55;;;;;;;-0.45;93.24;102399.44;4916931;29;20035;-73
2022/12/17 15:08:19;;;;;;;47.97;21.90;;;;;;;-0.58;94.22;102400.75;4929770;29;20042;-73
2022/12/17 15:10:44;;;;;;;42.67;20.27;;;;;;;-0.64;95.07;102403.59;4933765;29;20076;-74
2022/12/17 15:13:10;;;;;;;51.57;23.00;;;;;;;-0.77;95.19;102396.94;4913214;29;20075;-72
2022/12/17 15:15:35;;;;;;;55.60;21.50;;;;;;;-0.75;95.11;102400.41;4914032;29;20099;-73
2022/12/17 15:18:00;;;;;;;46.23;21.07;;;;;;;-0.71;94.42;102399.41;4915349;29;20387;-73
2022/12/17 15:20:26;;;;;;;41.93;19.87;;;;;;;-0.77;95.16;102402.25;4946796;28;20043;-73
2022/12/17 15:22:51;;;;;;;49.07;20.33;;;;;;;-0.86;94.72;102401.59;4915076;29;20032;-73
2022/12/17 15:25:18;;;;;;;45.43;19.43;;;;;;;-0.80;94.77;102403.19;4914386;29;20455;-73
2022/12/17 15:27:44;;;;;;;45.07;19.73;;;;;;;-0.95;95.37;102407.22;4944895;28;20068;-73
2022/12/17 15:30:15;;;;;;;55.33;19.07;;;;;;;-0.92;94.60;102399.13;4915658;29;20084;-72
2022/12/17 15:32:41;;;;;;;46.07;19.33;;;;;;;-0.87;94.87;102407.84;4914797;29;20068;-72
2022/12/17 15:35:06;;;;;;;49.07;20.33;;;;;;;-0.95;94.86;102409.88;4916317;29;20089;-73
2022/12/17 15:37:32;;;;;;;48.87;21.43;;;;;;;-1.07;95.32;102404.06;4931036;29;20035;-73
2022/12/17 15:39:57;;;;;;;37.43;19.23;;;;;;;-1.14;96.08;102408.69;4915640;29;20039;-75
2022/12/17 15:45:07;;;;;;;46.50;21.13;;;;;;;-1.21;96.49;102412.44;4916066;29;20123;-75
2022/12/17 15:47:33;;;;;;;59.60;21.63;;;;;;;-1.34;97.20;102411.06;4916664;29;20055;-75
2022/12/17 15:49:58;;;;;;;59.07;24.40;;;;;;;-1.33;97.12;102407.47;4915728;29;20028;-75
2022/12/17 15:52:23;;;;;;;59.97;24.80;;;;;;;-1.42;97.19;102409.50;4917781;29;20055;-75
2022/12/17 15:54:49;;;;;;;55.43;24.30;;;;;;;-1.51;97.48;102409.72;4932061;29;20483;-75
2022/12/17 15:57:14;;;;;;;60.00;24.93;;;;;;;-1.40;97.51;102412.09;4916371;29;20035;-75
2022/12/17 15:59:39;;;;;;;61.63;24.87;;;;;;;-1.56;97.87;102416.97;4915704;29;20426;-73
2022/12/17 16:02:05;;;;;;;56.10;24.27;;;;;;;-1.65;97.88;102422.53;4931972;29;20486;-73
2022/12/17 16:04:30;;;;;;;61.93;25.17;;;;;;;-1.62;98.26;102427.78;4917123;29;20032;-73
2022/12/17 16:06:56;;;;;;;51.30;23.90;;;;;;;-1.79;98.49;102424.69;4915716;29;20116;-73
2022/12/17 16:09:23;;;;;;;51.43;23.07;;;;;;;-1.70;98.51;102427.09;4915506;29;20020;-75
2022/12/17 16:11:53;;;;;;;50.03;22.30;;;;;;;-1.58;97.55;102429.41;4930832;29;20036;-74
2022/12/17 16:14:19;;;;;;;66.43;24.60;;;;;;;-1.77;98.26;102433.47;4923241;29;20032;-74
2022/12/17 16:16:44;;;;;;;50.70;23.17;;;;;;;-1.79;98.54;102435.31;4899560;29;20476;-74
2022/12/17 16:19:09;;;;;;;47.07;21.13;;;;;;;-1.80;97.71;102430.91;4915557;29;20032;-73
2022/12/17 16:21:35;;;;;;;52.17;21.53;;;;;;;-1.76;97.01;102440.53;4899923;29;20131;-74
2022/12/17 16:24:00;;;;;;;47.73;20.77;;;;;;;-1.93;97.50;102441.84;4927619;29;20033;-74
2022/12/17 16:26:26;;;;;;;53.80;20.50;;;;;;;-1.89;97.71;102447.06;4934880;29;20055;-74
2022/12/17 16:28:51;;;;;;;46.97;19.40;;;;;;;-1.81;97.21;102442.44;4911457;29;20050;-73
2022/12/17 16:31:16;;;;;;;55.50;20.67;;;;;;;-2.00;97.43;102437.63;4915309;29;20038;-73
2022/12/17 16:33:43;;;;;;;39.80;18.37;;;;;;;-1.98;97.67;102435.78;4899468;29;20028;-74
2022/12/17 16:36:12;;;;;;;42.13;18.23;;;;;;;-1.98;97.07;102435.78;4899241;29;20024;-73
2022/12/17 16:38:43;;;;;;;39.77;18.57;;;;;;;-2.08;97.61;102444.91;4899670;29;20032;-73
2022/12/17 16:41:08;;;;;;;38.35;19.23;;;;;;;-1.94;97.64;102448.09;4915355;29;20060;-74
2022/12/17 16:43:34;;;;;;;58.83;21.10;;;;;;;-1.92;97.65;102451.56;4899871;29;20067;-73
2022/12/17 16:46:00;;;;;;;51.80;22.90;;;;;;;-1.97;97.68;102457.88;4898894;29;20063;-73
2022/12/17 16:48:26;;;;;;;48.63;21.13;;;;;;;-2.07;98.42;102462.56;4899298;29;20044;-73
2022/12/17 16:50:51;;;;;;;42.40;21.67;;;;;;;-2.08;98.81;102455.53;4915950;29;20103;-73
2022/12/17 16:53:18;;;;;;;57.37;23.37;;;;;;;-2.13;98.48;102452.09;4899823;29;20036;-73
2022/12/17 16:55:45;;;;;;;43.67;21.60;;;;;;;-2.11;99.17;102447.63;4899399;29;20032;-73
2022/12/17 16:58:12;;;;;;;46.37;21.90;;;;;;;-2.26;99.68;102448.88;4899100;29;20027;-73
2022/12/17 17:00:37;;;;;;;47.37;23.80;;;;;;;-2.23;99.50;102450.56;4898961;29;20245;-73
2022/12/17 17:03:04;;;;;;;46.13;21.93;;;;;;;-2.23;99.84;102446.13;4899048;29;20031;-73
2022/12/17 17:05:35;;;;;;;47.77;23.07;;;;;;;-2.27;99.57;102454.25;4898173;29;20028;-73
2022/12/17 17:08:01;;;;;;;47.28;21.90;;;;;;;-2.23;99.23;102458.53;4915107;29;20097;-73
2022/12/17 17:10:27;;;;;;;49.47;24.50;;;;;;;-2.18;99.10;102461.97;4899257;29;20126;-73
2022/12/17 17:12:53;;;;;;;49.40;23.13;;;;;;;-2.18;98.86;102454.00;4917958;29;20369;-73
2022/12/17 17:15:19;;;;;;;45.17;21.60;;;;;;;-2.16;98.97;102456.59;4917760;29;20036;-73
2022/12/17 17:17:44;;;;;;;51.93;22.37;;;;;;;-2.24;99.16;102455.00;4918112;29;20030;-74
2022/12/17 17:20:11;;;;;;;47.43;23.03;;;;;;;-2.26;98.75;102455.97;4917389;29;20028;-73
2022/12/17 17:22:36;;;;;;;41.20;22.03;;;;;;;-2.44;99.26;102461.72;4917910;29;20074;-73
2022/12/17 17:25:02;;;;;;;61.77;23.23;;;;;;;-2.39;99.46;102465.13;4917436;29;20059;-73
2022/12/17 17:27:27;;;;;;;53.73;23.70;;;;;;;-2.43;99.80;102474.06;4934409;29;20501;-74
2022/12/17 17:29:55;;;;;;;50.80;21.63;;;;;;;-2.48;99.36;102477.72;4917846;29;20028;-75
2022/12/17 17:32:21;;;;;;;53.60;22.17;;;;;;;-2.37;99.18;102485.41;4917644;29;20553;-74
2022/12/17 17:34:46;;;;;;;49.47;21.60;;;;;;;-2.33;98.10;102475.59;4933449;29;20031;-74
2022/12/17 17:37:12;;;;;;;52.73;22.70;;;;;;;-2.43;98.84;102471.41;4930257;29;20020;-72
2022/12/17 17:39:38;;;;;;;49.37;23.17;;;;;;;-2.46;99.13;102470.59;4916588;29;20034;-72
2022/12/17 17:42:04;;;;;;;50.87;22.10;;;;;;;-2.48;99.34;102479.47;4933097;29;20024;-72
2022/12/17 17:44:29;;;;;;;43.57;21.23;;;;;;;-2.44;98.71;102488.22;4924233;29;20027;-72
2022/12/17 17:46:54;;;;;;;47.40;22.03;;;;;;;-2.54;99.36;102488.47;4948021;28;20023;-72
2022/12/17 17:49:21;;;;;;;49.33;23.33;;;;;;;-2.59;99.78;102485.03;4916918;29;20023;-72
2022/12/17 17:51:46;;;;;;;43.93;20.70;;;;;;;-2.53;99.34;102495.50;4916520;29;20060;-72
2022/12/17 17:54:14;;;;;;;52.23;21.30;;;;;;;-2.50;98.47;102494.53;4932090;29;20047;-72
2022/12/17 17:56:40;;;;;;;51.20;24.07;;;;;;;-2.39;99.01;102491.66;4948485;28;20027;-71
2022/12/17 17:59:09;;;;;;;50.53;21.60;;;;;;;-2.62;100.00;102501.00;4916379;29;20083;-72
2022/12/17 18:01:43;;;;;;;45.40;22.70;;;;;;;-2.56;99.57;102505.28;4915957;29;20027;-71
2022/12/17 18:04:12;;;;;;;61.00;25.50;;;;;;;-2.55;99.46;102499.94;4916470;29;20043;-71
2022/12/17 18:06:40;;;;;;;61.30;26.30;;;;;;;-2.74;100.00;102506.56;4916388;29;20055;-71
2022/12/17 18:09:07;;;;;;;54.57;25.27;;;;;;;-2.76;100.00;102508.38;4916610;29;20020;-71
2022/12/17 18:11:32;;;;;;;58.67;26.60;;;;;;;-2.69;100.00;102510.00;4916002;29;20019;-71
2022/12/17 18:13:59;;;;;;;62.87;27.37;;;;;;;-2.83;100.00;102501.47;4921469;29;20131;-71
2022/12/17 18:16:27;;;;;;;58.00;26.17;;;;;;;-2.72;100.00;102514.50;4932681;29;20030;-71
2022/12/17 18:19:01;;;;;;;69.37;27.13;;;;;;;-2.86;100.00;102517.44;4917720;29;20027;-72
2022/12/17 18:21:29;;;;;;;62.33;28.43;;;;;;;-2.80;100.00;102512.88;4909138;29;20115;-71
2022/12/17 18:24:00;;;;;;;62.57;27.97;;;;;;;-2.88;100.00;102519.22;4897020;29;20016;-72
2022/12/17 18:26:27;;;;;;;57.88;24.33;;;;;;;-2.89;100.00;102517.50;4904348;29;20498;-71
2022/12/17 18:28:53;;;;;;;66.23;29.17;;;;;;;-2.95;100.00;102522.91;4920106;29;20114;-71
2022/12/17 18:31:21;;;;;;;64.03;28.97;;;;;;;-2.82;100.00;102519.09;4924882;29;20060;-70
2022/12/17 18:33:55;;;;;;;66.00;29.00;;;;;;;-2.85;100.00;102521.84;4909797;29;20055;-70
2022/12/17 18:36:23;;;;;;;74.10;31.47;;;;;;;-2.91;100.00;102519.31;4904222;29;20027;-71
2022/12/17 18:38:56;;;;;;;66.00;29.70;;;;;;;-2.92;100.00;102518.44;4920142;29;20035;-72
2022/12/17 18:44:07;;;;;;;71.53;30.90;;;;;;;-3.08;100.00;102532.88;4922804;29;20071;-71
2022/12/17 18:46:33;;;;;;;65.60;29.47;;;;;;;-2.98;100.00;102538.91;4920123;29;20028;-71
2022/12/17 18:49:00;;;;;;;64.53;31.03;;;;;;;-3.09;100.00;102539.09;4912033;29;20118;-70
2022/12/17 18:51:27;;;;;;;83.90;30.97;;;;;;;-3.11;100.00;102544.44;4907528;29;20019;-71
2022/12/17 18:53:58;;;;;;;72.10;31.17;;;;;;;-3.26;100.00;102550.03;4915170;29;20059;-72
2022/12/17 18:56:24;;;;;;;;;;;;;;;-3.06;100.00;102547.88;4922319;29;20071;-71
2022/12/17 18:58:54;;;;;;;71.67;32.10;;;;;;;-3.06;100.00;102558.47;4920864;29;19998;-71
2022/12/17 19:01:22;;;;;;;66.60;31.87;;;;;;;-3.25;100.00;102546.47;4900491;29;20115;-71
2022/12/17 19:03:48;;;;;;;81.63;33.43;;;;;;;-3.41;100.00;102555.59;4920186;29;20487;-71
2022/12/17 19:06:14;;;;;;;74.50;31.77;;;;;;;-3.45;100.00;102553.91;4899461;29;20135;-73
2022/12/17 19:08:39;;;;;;;65.13;34.83;;;;;;;-3.48;100.00;102554.81;4898653;29;20019;-73
2022/12/17 19:11:07;;;;;;;77.93;33.00;;;;;;;-3.48;100.00;102553.97;4913145;29;20147;-70
2022/12/17 19:13:32;;;;;;;77.17;33.67;;;;;;;-3.36;100.00;102559.03;4901144;29;20040;-71
2022/12/17 19:16:06;;;;;;;61.73;29.90;;;;;;;-3.26;100.00;102550.03;4896641;29;20039;-70
2022/12/17 19:18:32;;;;;;;79.27;35.40;;;;;;;-3.42;100.00;102556.50;4917447;29;20026;-70
2022/12/17 19:20:59;;;;;;;76.17;34.57;;;;;;;-3.44;100.00;102555.66;4900544;29;20024;-73
2022/12/17 19:23:24;;;;;;;68.53;32.53;;;;;;;-3.35;100.00;102560.78;4912503;29;20032;-71
2022/12/17 19:25:50;;;;;;;73.80;33.77;;;;;;;-3.46;100.00;102568.91;4910062;29;20031;-71
2022/12/17 19:28:16;;;;;;;75.77;34.60;;;;;;;-3.39;100.00;102580.25;4899990;29;20107;-71
2022/12/17 19:30:42;;;;;;;72.50;34.53;;;;;;;-3.36;100.00;102586.38;4927562;29;20024;-71
2022/12/17 19:33:07;;;;;;;74.20;35.70;;;;;;;-3.39;100.00;102590.84;4904138;29;20036;-71
2022/12/17 19:35:36;;;;;;;70.87;32.83;;;;;;;-3.53;100.00;102584.94;4896228;29;20024;-71
2022/12/17 19:38:01;;;;;;;75.13;33.90;;;;;;;-3.42;100.00;102585.63;4904582;29;20024;-71
2022/12/17 19:40:27;;;;;;;73.47;33.93;;;;;;;-3.50;100.00;102577.81;4921305;29;20032;-71
2022/12/17 19:42:56;;;;;;;77.07;33.77;;;;;;;-3.59;100.00;102576.22;4926066;29;20020;-72
2022/12/17 19:45:21;;;;;;;75.73;35.10;;;;;;;-3.62;100.00;102578.91;4904925;29;20028;-71
2022/12/17 19:47:47;;;;;;;69.63;33.27;;;;;;;-3.58;100.00;102588.53;4898276;29;20091;-71
2022/12/17 19:50:13;;;;;;;79.40;34.37;;;;;;;-3.48;100.00;102583.09;4908408;29;20488;-71
2022/12/17 19:52:38;;;;;;;75.57;34.37;;;;;;;-3.44;100.00;102588.31;4914418;29;20040;-71
2022/12/17 19:55:04;;;;;;;74.60;35.93;;;;;;;-3.63;100.00;102586.88;4906956;29;20035;-72
2022/12/17 19:57:30;;;;;;;78.77;36.10;;;;;;;-3.56;100.00;102586.72;4899826;29;20479;-71
2022/12/17 19:59:55;;;;;;;71.07;34.37;;;;;;;-3.59;100.00;102573.56;4930207;29;20027;-71
2022/12/17 20:02:21;;;;;;;68.67;33.03;;;;;;;-3.82;100.00;102578.34;4908506;29;20039;-71
2022/12/17 20:04:46;;;;;;;75.37;34.10;;;;;;;-3.82;100.00;102581.00;4904804;29;20030;-71
2022/12/17 20:07:12;;;;;;;84.57;37.83;;;;;;;-3.83;100.00;102587.19;4910553;29;20109;-71
2022/12/17 20:09:39;;;;;;;80.20;38.33;;;;;;;-3.82;100.00;102588.94;4907057;29;20028;-71
2022/12/17 20:12:05;;;;;;;82.73;36.43;;;;;;;-3.91;100.00;102592.63;4922515;29;20095;-71
2022/12/17 20:14:30;;;;;;;77.40;36.10;;;;;;;-3.92;100.00;102600.53;4914645;29;20487;-71
2022/12/17 20:16:58;;;;;;;83.37;38.07;;;;;;;-3.86;100.00;102595.16;4914966;29;20127;-71
2022/12/17 20:19:26;;;;;;;82.67;37.80;;;;;;;-3.92;100.00;102605.84;4931238;29;20024;-71
2022/12/17 20:21:53;;;;;;;75.33;36.13;;;;;;;-3.98;100.00;102600.63;4946098;28;20088;-71
2022/12/17 20:24:19;;;;;;;89.43;38.73;;;;;;;-4.08;100.00;102593.75;4915922;29;20053;-73
2022/12/17 20:26:47;;;;;;;85.47;37.87;;;;;;;-4.14;100.00;102606.16;4916128;29;20016;-73
2022/12/17 20:29:12;;;;;;;82.13;39.23;;;;;;;-4.10;100.00;102592.00;4916300;29;20016;-70
2022/12/17 20:31:38;;;;;;;89.37;40.80;;;;;;;-4.16;100.00;102594.75;4914884;29;20487;-72
2022/12/17 20:34:06;;;;;;;80.97;38.00;;;;;;;-4.14;100.00;102600.88;4914731;29;20024;-72
2022/12/17 20:36:31;;;;;;;85.10;38.63;;;;;;;-4.16;100.00;102592.09;4930747;29;20395;-72
2022/12/17 20:38:57;;;;;;;82.67;37.53;;;;;;;-4.01;100.00;102595.41;4930844;29;20020;-70
2022/12/17 20:41:25;;;;;;;88.80;39.60;;;;;;;-4.07;100.00;102600.78;4946217;28;20024;-70
2022/12/17 20:43:51;;;;;;;81.40;38.03;;;;;;;-3.90;100.00;102598.78;4918412;29;20023;-71
2022/12/17 20:46:18;;;;;;;80.50;36.37;;;;;;;-4.01;100.00;102606.00;4923502;29;20020;-70
2022/12/17 20:48:44;;;;;;;83.67;38.70;;;;;;;-4.04;100.00;102611.31;4915635;29;20167;-70
2022/12/17 20:51:17;;;;;;;73.57;37.53;;;;;;;-3.92;100.00;102611.13;4931668;29;20064;-70
2022/12/17 20:53:43;;;;;;;81.13;35.13;;;;;;;-4.04;100.00;102612.22;4909331;29;20020;-70
2022/12/17 20:56:11;;;;;;;82.30;38.63;;;;;;;-4.01;100.00;102611.28;4930766;29;20035;-71
2022/12/17 20:58:38;;;;;;;88.20;37.77;;;;;;;-3.92;100.00;102616.41;4908791;29;20040;-70
2022/12/17 21:01:19;;;;;;;81.27;38.63;;;;;;;-4.04;100.00;102616.59;4916076;29;20040;-71
2022/12/17 21:03:49;;;;;;;78.43;34.10;;;;;;;-3.99;100.00;102617.41;4914292;29;20031;-71
2022/12/17 21:06:19;;;;;;;74.60;34.87;;;;;;;-4.06;100.00;102613.13;4946513;28;20051;-71
2022/12/17 21:08:47;;;;;;;88.47;39.47;;;;;;;-4.30;100.00;102614.31;4930606;29;20028;-73
2022/12/17 21:11:22;;;;;;;83.78;39.17;;;;;;;-4.49;100.00;102616.34;4914373;29;20035;-72
2022/12/17 21:13:52;;;;;;;87.70;37.83;;;;;;;-4.51;100.00;102611.06;4912090;29;20079;-71
2022/12/17 21:16:21;;;;;;;87.03;35.33;;;;;;;-4.66;100.00;102608.63;4899351;29;20435;-72
2022/12/17 21:18:46;;;;;;;89.50;39.47;;;;;;;-4.66;100.00;102612.13;4904819;29;20031;-72
2022/12/17 21:21:18;;;;;;;82.00;39.73;;;;;;;-4.65;100.00;102613.88;4915375;29;20080;-72
2022/12/17 21:23:45;;;;;;;81.30;35.25;;;;;;;-4.47;100.00;102627.78;4908588;29;20535;-72
2022/12/17 21:26:23;;;;;;;90.67;39.90;;;;;;;-4.51;100.00;102620.75;4898751;29;20030;-73
2022/12/17 21:28:51;;;;;;;75.57;35.23;;;;;;;-4.53;100.00;102627.84;4916296;29;20099;-72
2022/12/17 21:31:19;;;;;;;88.23;38.23;;;;;;;-4.55;100.00;102627.88;4914410;29;20044;-72
2022/12/17 21:33:49;;;;;;;82.33;35.57;;;;;;;-4.52;100.00;102641.03;4915310;29;20415;-70
2022/12/17 21:36:16;;;;;;;74.00;37.03;;;;;;;-4.45;100.00;102641.84;4914105;29;20091;-73
2022/12/17 21:38:42;;;;;;;78.20;36.07;;;;;;;-4.55;100.00;102640.22;4898465;29;20020;-71
2022/12/17 21:41:10;;;;;;;85.63;38.33;;;;;;;-4.52;100.00;102645.44;4898168;29;20487;-70
2022/12/17 21:43:36;;;;;;;76.93;36.17;;;;;;;-4.67;100.00;102652.66;4899484;29;20024;-71
2022/12/17 21:46:03;;;;;;;80.07;34.20;;;;;;;-4.58;100.00;102645.53;4908709;29;20063;-71
2022/12/17 21:48:28;;;;;;;78.67;33.27;;;;;;;-4.75;100.00;102643.97;4917513;29;20030;-71
2022/12/17 21:50:54;;;;;;;76.53;33.43;;;;;;;-4.83;100.00;102659.00;4923397;29;20019;-71
2022/12/17 21:53:19;;;;;;;74.33;33.40;;;;;;;-4.90;100.00;102654.69;4905456;29;20082;-71
2022/12/17 21:55:45;;;;;;;68.47;33.07;;;;;;;-4.84;100.00;102654.63;4920411;29;20496;-71
2022/12/17 21:58:10;;;;;;;62.57;31.20;;;;;;;-4.81;100.00;102644.03;4897994;29;20028;-71
2022/12/17 22:00:36;;;;;;;70.90;30.90;;;;;;;-4.79;100.00;102647.53;4916010;29;20016;-71
2022/12/17 22:03:01;;;;;;;76.97;32.03;;;;;;;-4.81;100.00;102648.44;4918037;29;20024;-71
2022/12/17 22:05:27;;;;;;;66.87;29.47;;;;;;;-4.71;100.00;102650.94;4901961;29;20043;-71
2022/12/17 22:07:53;;;;;;;63.07;29.40;;;;;;;-4.81;100.00;102654.59;4898018;29;20024;-71
2022/12/17 22:10:18;;;;;;;64.53;30.03;;;;;;;-4.80;100.00;102661.63;4912556;29;20034;-71
2022/12/17 22:15:28;;;;;;;62.97;28.10;;;;;;;-4.80;100.00;102656.34;4936850;29;20023;-71
2022/12/17 22:17:54;;;;;;;63.70;30.07;;;;;;;-4.79;100.00;102655.44;4933965;29;20078;-71
2022/12/17 22:20:20;;;;;;;65.07;30.10;;;;;;;-4.72;100.00;102659.78;4916247;29;20027;-71
2022/12/17 22:22:45;;;;;;;71.90;30.63;;;;;;;-4.68;100.00;102666.78;4915662;29;20367;-71
2022/12/17 22:25:11;;;;;;;59.23;29.37;;;;;;;-4.81;100.00;102661.66;4932673;29;20030;-71
2022/12/17 22:27:37;;;;;;;66.23;29.67;;;;;;;-4.83;100.00;102655.50;4932954;29;20028;-72
2022/12/17 22:32:59;;;;;;;66.77;29.93;;;;;;;-5.00;100.00;102653.03;4933407;29;20020;-70
2022/12/17 22:35:25;;;;;;;60.23;30.37;;;;;;;-4.98;100.00;102640.69;4916118;29;20034;-71
2022/12/17 22:37:51;;;;;;;68.57;31.10;;;;;;;-4.96;100.00;102654.75;4917016;29;20030;-71
2022/12/17 22:40:19;;;;;;;77.10;29.93;;;;;;;-5.02;100.00;102660.06;4916004;29;20031;-71
2022/12/17 22:45:29;;;;;;;59.47;27.00;;;;;;;-4.96;100.00;102662.66;4934089;29;20102;-71
2022/12/17 22:47:54;;;;;;;73.03;29.97;;;;;;;-5.04;100.00;102667.16;4923015;29;20031;-70
2022/12/17 22:50:20;;;;;;;77.33;31.40;;;;;;;-5.12;100.00;102664.59;4916651;29;20031;-71
2022/12/17 22:52:45;;;;;;;68.10;30.43;;;;;;;-5.19;100.00;102663.75;4916366;29;20067;-71
2022/12/17 22:55:11;;;;;;;70.03;28.53;;;;;;;-5.11;100.00;102665.47;4916703;29;20036;-71
2022/12/17 22:57:37;;;;;;;64.63;28.87;;;;;;;-5.10;100.00;102668.09;4933023;29;20063;-70
2022/12/17 23:00:11;;;;;;;59.17;28.37;;;;;;;-5.15;100.00;102669.00;4915897;29;20109;-71
2022/12/17 23:02:37;;;;;;;66.40;29.07;;;;;;;-5.10;100.00;102667.22;4915850;29;20039;-71
2022/12/17 23:05:02;;;;;;;74.10;29.30;;;;;;;-5.13;100.00;102656.69;4916032;29;20032;-71
2022/12/17 23:07:27;;;;;;;69.70;31.77;;;;;;;-5.18;100.00;102660.22;4916028;29;20038;-71
2022/12/17 23:09:53;;;;;;;73.00;30.40;;;;;;;-5.13;100.00;102652.28;4916366;29;20055;-71
2022/12/17 23:15:02;;;;;;;55.33;28.00;;;;;;;-5.12;100.00;102663.72;4916158;29;20047;-71
2022/12/17 23:17:28;;;;;;;58.53;28.17;;;;;;;-5.09;100.00;102658.38;4912689;29;20036;-72
2022/12/17 23:19:56;;;;;;;63.40;27.83;;;;;;;-5.09;100.00;102658.38;4912624;29;20102;-71
2022/12/17 23:22:22;;;;;;;66.93;28.30;;;;;;;-5.08;100.00;102650.47;4915446;29;20479;-74
2022/12/17 23:24:47;;;;;;;60.17;27.37;;;;;;;-5.05;100.00;102662.75;4901187;29;20052;-72
2022/12/17 23:27:12;;;;;;;71.03;27.10;;;;;;;-5.09;100.00;102658.38;4916215;29;20028;-72
2022/12/17 23:29:37;;;;;;;69.60;29.60;;;;;;;-5.11;100.00;102662.81;4916340;29;20040;-72
2022/12/17 23:32:03;;;;;;;67.87;29.73;;;;;;;-5.22;100.00;102655.88;4918027;29;20042;-72
2022/12/17 23:34:28;;;;;;;61.13;28.03;;;;;;;-5.18;100.00;102649.66;4900469;29;20166;-71
2022/12/17 23:36:54;;;;;;;64.93;27.30;;;;;;;-5.23;100.00;102655.88;4900211;29;20035;-72
2022/12/17 23:39:19;;;;;;;64.60;28.60;;;;;;;-5.26;100.00;102651.50;4916018;29;20032;-71
2022/12/17 23:41:44;;;;;;;58.97;25.57;;;;;;;-4.97;100.00;102658.28;4906861;29;20032;-71
2022/12/17 23:44:10;;;;;;;60.93;24.47;;;;;;;-4.81;100.00;102659.88;4901794;29;20020;-71
2022/12/17 23:46:35;;;;;;;59.80;24.83;;;;;;;-5.05;100.00;102644.28;4901986;29;20024;-70
2022/12/17 23:49:32;;;;;;;51.33;24.77;;;;;;;-5.27;100.00;102660.31;4903144;29;20019;-70
2022/12/17 23:51:57;;;;;;;56.90;23.77;;;;;;;-5.14;100.00;102654.94;4916760;29;20079;-70
2022/12/17 23:54:23;;;;;;;51.37;24.83;;;;;;;-5.04;100.00;102656.59;4914787;29;20550;-70
2022/12/17 23:56:49;;;;;;;53.13;26.73;;;;;;;-5.27;100.00;102665.59;4914929;29;20636;-70
2022/12/17 23:59:14;;;;;;;51.43;24.57;;;;;;;-5.25;100.00;102674.38;4906916;29;20086;-70
